Time;durP1;ratioP1;P1;durP2;ratioP2;P2;SDS_P1;SDS_P2;PMS_P1;PMS_P2;Temp;Humidity;BMP_temperature;BMP_pressure;BME280_temperature;BME280_humidity;BME280_pressure;Samples;Min_cycle;Max_cycle;Signal;HPM_P1;HPM_P2
2022/04/03 00:00:00;;;;;;;4.45;3.87;;;;;;;11.19;100.00;99176.94;1702461;84;21121;-61
2022/04/03 00:02:30;;;;;;;5.35;4.55;;;;;;;11.16;100.00;99174.59;1702674;84;21061;-62
2022/04/03 00:04:57;;;;;;;6.62;4.60;;;;;;;11.14;100.00;99174.69;1702533;84;21046;-61
2022/04/03 00:07:25;;;;;;;6.55;4.87;;;;;;;11.14;100.00;99180.31;1702694;84;21090;-62
2022/04/03 00:09:54;;;;;;;5.95;4.65;;;;;;;11.12;100.00;99184.27;1702491;84;21062;-62
2022/04/03 00:12:22;;;;;;;5.40;4.53;;;;;;;11.16;100.00;99183.14;1702727;84;21019;-62
2022/04/03 00:14:50;;;;;;;6.47;5.05;;;;;;;11.23;100.00;99193.84;1702410;84;21038;-62
2022/04/03 00:17:18;;;;;;;8.23;5.10;;;;;;;11.28;100.00;99192.26;1702721;84;21082;-62
2022/04/03 00:19:48;;;;;;;5.90;4.67;;;;;;;11.32;100.00;99187.25;1702329;84;21055;-62
2022/04/03 00:22:16;;;;;;;6.20;4.72;;;;;;;11.38;100.00;99194.09;1702590;84;21063;-62
2022/04/03 00:24:43;;;;;;;6.40;5.05;;;;;;;11.37;100.00;99200.63;1702645;84;21511;-62
2022/04/03 00:27:12;;;;;;;5.22;4.65;;;;;;;11.32;100.00;99200.95;1702729;84;21047;-63
2022/04/03 00:29:39;;;;;;;5.92;4.60;;;;;;;11.28;100.00;99198.70;1702460;84;21051;-61
2022/04/03 00:32:08;;;;;;;5.70;4.65;;;;;;;11.24;100.00;99199.36;1702463;84;21107;-62
2022/04/03 00:34:35;;;;;;;5.42;4.62;;;;;;;11.23;100.00;99206.28;1702660;84;21050;-62
2022/04/03 00:37:04;;;;;;;6.50;5.00;;;;;;;11.26;100.00;99210.39;1702478;84;21027;-62
2022/04/03 00:39:32;;;;;;;7.33;5.15;;;;;;;11.19;100.00;99210.42;1702624;84;21106;-62
2022/04/03 00:42:02;;;;;;;5.65;4.60;;;;;;;11.09;100.00;99204.25;1699662;84;21488;-62
2022/04/03 00:44:31;;;;;;;6.55;4.92;;;;;;;11.10;100.00;99203.34;1637735;86;21044;-61
2022/04/03 00:47:00;;;;;;;5.95;5.08;;;;;;;11.03;100.00;99206.80;1671767;86;21059;-61
2022/04/03 00:49:28;;;;;;;6.08;5.15;;;;;;;11.06;100.00;99209.62;1689756;85;21013;-61
2022/04/03 00:51:55;;;;;;;6.33;5.10;;;;;;;11.05;100.00;99201.52;1689558;84;21049;-62
2022/04/03 00:54:23;;;;;;;6.15;5.03;;;;;;;11.00;100.00;99195.39;1689462;85;21092;-62
2022/04/03 00:56:52;;;;;;;5.47;4.85;;;;;;;10.97;100.00;99200.30;1689520;85;21095;-62
2022/04/03 00:59:20;;;;;;;6.00;4.87;;;;;;;10.94;100.00;99201.77;1689632;84;21099;-61
2022/04/03 01:01:48;;;;;;;5.85;4.95;;;;;;;10.94;100.00;99206.92;1689780;84;21529;-62
2022/04/03 01:04:17;;;;;;;7.60;5.30;;;;;;;10.97;100.00;99204.16;1689526;84;21056;-62
2022/04/03 01:06:44;;;;;;;7.60;5.25;;;;;;;10.89;100.00;99206.86;1689721;84;21068;-62
2022/04/03 01:09:14;;;;;;;6.65;5.20;;;;;;;10.91;100.00;99211.00;1689457;84;21096;-62
2022/04/03 01:11:46;;;;;;;6.70;5.10;;;;;;;10.95;100.00;99219.36;1689461;84;21120;-62
2022/04/03 01:14:35;;;;;;;6.65;5.47;;;;;;;10.94;100.00;99208.68;1689851;84;21025;-62
2022/04/03 01:17:05;;;;;;;7.87;5.53;;;;;;;10.95;100.00;99208.59;1689474;84;21047;-62
2022/04/03 01:19:32;;;;;;;8.18;6.15;;;;;;;10.96;100.00;99212.80;1689652;84;21069;-62
2022/04/03 01:22:01;;;;;;;6.75;5.45;;;;;;;10.97;100.00;99209.31;1689577;84;21053;-62
2022/04/03 01:24:30;;;;;;;6.47;5.05;;;;;;;10.96;100.00;99214.08;1689702;85;21049;-62
2022/04/03 01:26:58;;;;;;;8.15;5.83;;;;;;;10.89;100.00;99209.44;1689556;84;21045;-62
2022/04/03 01:29:26;;;;;;;5.87;5.17;;;;;;;10.89;100.00;99213.30;1689777;85;21041;-62
2022/04/03 01:31:54;;;;;;;8.28;6.12;;;;;;;10.74;100.00;99206.95;1689368;84;21092;-62
2022/04/03 01:34:21;;;;;;;6.20;5.15;;;;;;;10.72;100.00;99192.06;1689474;84;21060;-62
2022/04/03 01:36:49;;;;;;;6.08;4.83;;;;;;;10.65;100.00;99195.17;1689692;85;21088;-62
2022/04/03 01:39:18;;;;;;;7.67;5.50;;;;;;;10.59;100.00;99201.53;1689414;85;21048;-62
2022/04/03 01:41:48;;;;;;;7.35;5.25;;;;;;;10.55;100.00;99194.94;1689524;84;21040;-63
2022/04/03 01:44:15;;;;;;;8.98;6.15;;;;;;;10.55;100.00;99197.04;1699289;84;21545;-63
2022/04/03 01:46:43;;;;;;;10.20;6.60;;;;;;;10.57;100.00;99205.95;1699643;84;21536;-62
2022/04/03 01:49:11;;;;;;;11.30;6.53;;;;;;;10.53;100.00;99213.51;1699353;84;21040;-62
2022/04/03 01:51:38;;;;;;;9.68;6.35;;;;;;;10.56;100.00;99225.72;1701069;84;21053;-62
2022/04/03 01:54:06;;;;;;;9.35;6.15;;;;;;;10.65;100.00;99224.77;1699480;84;21107;-62
2022/04/03 01:56:34;;;;;;;8.13;5.20;;;;;;;10.70;100.00;99226.56;1699419;84;21029;-63
2022/04/03 01:59:03;;;;;;;9.20;6.22;;;;;;;10.72;100.00;99229.86;1699544;84;21087;-62
2022/04/03 02:01:34;;;;;;;9.10;5.85;;;;;;;10.65;100.00;99238.45;1699366;84;21044;-62
2022/04/03 02:04:03;;;;;;;9.65;6.20;;;;;;;10.64;100.00;99240.64;1701325;84;21553;-62
2022/04/03 02:06:32;;;;;;;9.83;6.20;;;;;;;10.67;100.00;99240.93;1699654;84;21027;-62
2022/04/03 02:09:01;;;;;;;9.98;6.05;;;;;;;10.65;100.00;99246.64;1699341;84;21075;-62
2022/04/03 02:11:29;;;;;;;8.60;5.75;;;;;;;10.64;100.00;99244.50;1699481;84;20995;-62
2022/04/03 02:13:58;;;;;;;9.53;5.95;;;;;;;10.53;100.00;99249.53;1699490;84;21575;-62
2022/04/03 02:16:26;;;;;;;11.88;6.50;;;;;;;10.51;100.00;99247.05;1699270;84;21499;-62
2022/04/03 02:18:53;;;;;;;15.35;7.97;;;;;;;10.42;100.00;99248.47;1699415;84;21011;-62
2022/04/03 02:21:20;;;;;;;15.43;8.13;;;;;;;10.39;100.00;99247.84;1699655;84;21046;-62
2022/04/03 02:23:47;;;;;;;11.93;7.50;;;;;;;10.39;100.00;99249.94;1699413;84;21034;-62
2022/04/03 02:26:14;;;;;;;11.03;6.85;;;;;;;10.28;100.00;99250.21;1699640;84;21046;-62
2022/04/03 02:28:42;;;;;;;10.25;6.42;;;;;;;10.30;100.00;99247.97;1699419;84;21050;-62
2022/04/03 02:31:10;;;;;;;9.73;6.03;;;;;;;10.27;100.00;99255.83;1699401;84;21530;-61
2022/04/03 02:33:37;;;;;;;7.95;5.60;;;;;;;10.30;100.00;99254.39;1699533;84;21054;-62
2022/04/03 02:36:05;;;;;;;7.42;5.37;;;;;;;10.32;100.00;99252.98;1699380;84;21050;-62
2022/04/03 02:38:33;;;;;;;7.78;5.28;;;;;;;10.30;100.00;99257.41;1699756;84;21482;-62
2022/04/03 02:41:00;;;;;;;8.18;5.25;;;;;;;10.28;100.00;99252.34;1699330;84;21078;-62
2022/04/03 02:43:28;;;;;;;8.60;5.50;;;;;;;10.28;100.00;99247.64;1700955;84;21547;-62
2022/04/03 02:45:56;;;;;;;9.60;5.28;;;;;;;10.28;100.00;99242.50;1702535;84;21034;-62
2022/04/03 02:48:24;;;;;;;8.25;5.35;;;;;;;10.35;100.00;99239.95;1702309;84;21023;-62
2022/04/03 02:50:51;;;;;;;7.08;4.87;;;;;;;10.38;100.00;99243.16;1702594;84;21019;-62
2022/04/03 02:53:22;;;;;;;5.83;4.50;;;;;;;10.39;100.00;99243.98;1702321;84;21091;-62
2022/04/03 02:55:49;;;;;;;7.22;4.70;;;;;;;10.43;100.00;99244.96;1702665;84;21057;-62
2022/04/03 02:58:16;;;;;;;8.50;5.05;;;;;;;10.41;100.00;99245.52;1702544;84;21086;-62
2022/04/03 03:00:45;;;;;;;6.15;4.17;;;;;;;10.48;100.00;99241.27;1702544;84;21043;-62
2022/04/03 03:03:13;;;;;;;6.62;4.20;;;;;;;10.47;100.00;99241.73;1702666;84;21011;-62
2022/04/03 03:05:42;;;;;;;5.85;4.65;;;;;;;10.47;100.00;99247.35;1702557;84;21059;-62
2022/04/03 03:08:11;;;;;;;7.05;4.70;;;;;;;10.49;100.00;99248.08;1702727;84;21503;-62
2022/04/03 03:10:38;;;;;;;8.40;4.70;;;;;;;10.46;100.00;99243.93;1702521;84;21543;-62
2022/04/03 03:13:06;;;;;;;7.10;4.80;;;;;;;10.50;100.00;99241.56;1702628;84;21082;-62
2022/04/03 03:15:34;;;;;;;7.70;4.75;;;;;;;10.55;100.00;99248.97;1702459;84;21022;-62
2022/04/03 03:18:01;;;;;;;6.60;4.35;;;;;;;10.53;100.00;99250.35;1702504;84;21054;-62
2022/04/03 03:20:30;;;;;;;5.83;4.17;;;;;;;10.52;100.00;99244.01;1702712;84;21050;-62
2022/04/03 03:22:57;;;;;;;6.45;4.87;;;;;;;10.47;100.00;99251.21;1702440;84;21046;-62
2022/04/03 03:25:24;;;;;;;7.50;4.65;;;;;;;10.41;100.00;99251.13;1702750;84;21098;-62
2022/04/03 03:27:51;;;;;;;6.10;4.30;;;;;;;10.41;100.00;99240.84;1702515;84;21090;-62
2022/04/03 03:30:21;;;;;;;6.55;4.55;;;;;;;10.43;100.00;99239.81;1702637;84;21050;-62
2022/04/03 03:32:48;;;;;;;6.10;4.75;;;;;;;10.41;100.00;99240.84;1702431;84;21074;-62
2022/04/03 03:35:16;;;;;;;6.95;4.90;;;;;;;10.35;100.00;99245.09;1702426;84;21015;-62
2022/04/03 03:37:44;;;;;;;7.05;5.20;;;;;;;10.34;100.00;99244.27;1702837;83;21480;-62
2022/04/03 03:40:14;;;;;;;6.80;4.58;;;;;;;10.28;100.00;99248.49;1702404;84;21066;-62
2022/04/03 03:42:43;;;;;;;9.23;5.25;;;;;;;10.22;100.00;99252.27;1702655;84;21022;-61
2022/04/03 03:45:13;;;;;;;9.05;4.90;;;;;;;10.16;100.00;99255.22;1702547;84;21566;-62
2022/04/03 03:47:45;;;;;;;7.42;4.65;;;;;;;9.94;100.00;99242.05;1702768;84;21011;-61
2022/04/03 03:50:14;;;;;;;6.95;4.50;;;;;;;9.72;100.00;99241.25;1702781;84;21018;-62
2022/04/03 03:52:43;;;;;;;6.60;4.70;;;;;;;9.54;100.00;99238.05;1676566;84;20987;-62
2022/04/03 03:55:11;;;;;;;7.40;4.67;;;;;;;9.45;100.00;99228.31;1702483;84;21090;-62
2022/04/03 03:57:38;;;;;;;8.20;4.80;;;;;;;9.36;100.00;99231.80;1702733;84;21082;-61
2022/04/03 04:00:09;;;;;;;7.62;4.95;;;;;;;9.26;100.00;99233.72;1702421;84;21090;-62
2022/04/03 04:02:38;;;;;;;8.45;5.35;;;;;;;9.20;100.00;99222.91;1702640;84;20995;-62
2022/04/03 04:05:07;;;;;;;7.30;5.10;;;;;;;9.17;100.00;99219.23;1702412;84;21547;-61
2022/04/03 04:07:45;;;;;;;7.90;5.12;;;;;;;9.10;100.00;99207.66;1702638;84;21545;-61
2022/04/03 04:10:16;;;;;;;7.15;4.90;;;;;;;9.14;100.00;99216.83;1702426;84;21007;-63
2022/04/03 04:12:46;;;;;;;8.75;5.58;;;;;;;9.25;100.00;99230.34;1702815;84;21538;-62
2022/04/03 04:15:15;;;;;;;7.90;5.50;;;;;;;9.30;100.00;99234.73;1702640;84;20987;-62
2022/04/03 04:17:46;;;;;;;7.90;5.33;;;;;;;9.34;100.00;99225.92;1676745;84;21030;-63
2022/04/03 04:20:18;;;;;;;10.18;5.60;;;;;;;9.30;100.00;99224.45;1702706;84;21070;-62
2022/04/03 04:22:49;;;;;;;7.30;5.45;;;;;;;9.26;100.00;99225.55;1702819;84;21026;-62
2022/04/03 04:25:17;;;;;;;7.92;5.40;;;;;;;9.34;100.00;99219.50;1702678;84;21050;-62
2022/04/03 04:27:47;;;;;;;7.08;5.28;;;;;;;9.37;100.00;99226.23;1702892;84;21558;-62
2022/04/03 04:30:15;;;;;;;8.40;5.42;;;;;;;9.41;100.00;99225.13;1702703;84;21062;-62
2022/04/03 04:32:45;;;;;;;8.25;5.80;;;;;;;9.36;100.00;99227.94;1702520;84;21055;-62
2022/04/03 04:35:13;;;;;;;7.45;5.50;;;;;;;9.39;100.00;99229.06;1702838;84;21018;-61
2022/04/03 04:37:42;;;;;;;8.93;6.33;;;;;;;9.59;100.00;99225.73;1688111;84;21078;-62
2022/04/03 04:40:12;;;;;;;9.30;5.53;;;;;;;9.71;100.00;99230.59;1663923;84;21465;-62
2022/04/03 04:42:43;;;;;;;8.83;6.17;;;;;;;9.72;100.00;99229.22;1666735;84;21608;-62
2022/04/03 04:45:11;;;;;;;8.05;5.65;;;;;;;9.73;100.00;99234.74;1690525;84;21055;-62
2022/04/03 04:47:40;;;;;;;7.67;5.67;;;;;;;9.69;100.00;99231.99;1691304;84;21039;-63
2022/04/03 04:50:11;;;;;;;8.38;5.87;;;;;;;9.68;100.00;99229.52;1689142;84;20980;-62
2022/04/03 04:52:40;;;;;;;8.45;5.78;;;;;;;9.70;100.00;99229.77;1693565;84;21527;-61
2022/04/03 04:55:10;;;;;;;6.47;4.92;;;;;;;9.79;100.00;99233.08;1687938;84;21032;-61
2022/04/03 04:57:38;;;;;;;8.10;5.00;;;;;;;9.88;100.00;99233.44;1691976;84;21027;-61
2022/04/03 05:00:09;;;;;;;8.08;5.05;;;;;;;9.94;100.00;99239.02;1691689;84;21004;-61
2022/04/03 05:02:37;;;;;;;7.42;4.87;;;;;;;9.82;100.00;99236.73;1692323;84;21027;-62
2022/04/03 05:05:06;;;;;;;8.48;5.67;;;;;;;9.92;100.00;99246.47;1705151;83;21480;-61
2022/04/03 05:07:35;;;;;;;7.80;5.40;;;;;;;10.00;100.00;99244.24;1696709;84;21002;-62
2022/04/03 05:10:04;;;;;;;7.40;5.60;;;;;;;10.02;100.00;99253.97;1685766;84;21089;-62
2022/04/03 05:12:35;;;;;;;8.15;5.10;;;;;;;10.09;100.00;99250.55;1708690;83;21529;-62
2022/04/03 05:15:10;;;;;;;7.15;4.85;;;;;;;10.10;100.00;99232.46;1691251;84;21046;-61
2022/04/03 05:17:42;;;;;;;;;;;;;;;10.06;100.00;99240.44;1680778;85;21050;-62
2022/04/03 05:20:12;;;;;;;8.15;5.20;;;;;;;10.01;100.00;99245.87;1694945;83;20433;-61
2022/04/03 05:22:42;;;;;;;6.25;4.87;;;;;;;10.11;100.00;99241.81;1691346;83;21049;-62
2022/04/03 05:25:11;;;;;;;8.18;5.00;;;;;;;10.16;100.00;99241.55;1689723;84;21038;-62
2022/04/03 05:27:44;;;;;;;8.13;4.87;;;;;;;10.25;100.00;99247.85;1665222;86;21017;-62
2022/04/03 05:30:14;;;;;;;7.85;5.40;;;;;;;10.36;100.00;99236.00;1691308;83;21470;-62
2022/04/03 05:32:43;;;;;;;7.33;5.17;;;;;;;10.39;100.00;99238.36;1694188;84;21007;-63
2022/04/03 05:35:13;;;;;;;7.12;4.92;;;;;;;10.43;100.00;99242.39;1688089;84;20991;-63
2022/04/03 05:37:41;;;;;;;6.47;4.80;;;;;;;10.39;100.00;99243.50;1692128;84;21082;-63
2022/04/03 05:40:12;;;;;;;6.83;4.80;;;;;;;10.31;100.00;99229.49;1693277;84;21039;-61
2022/04/03 05:42:39;;;;;;;7.37;4.55;;;;;;;10.48;100.00;99227.94;1692904;84;21496;-61
2022/04/03 05:45:09;;;;;;;6.03;4.65;;;;;;;10.50;100.00;99232.55;1688995;84;21044;-62
2022/04/03 05:47:37;;;;;;;7.20;4.72;;;;;;;10.46;100.00;99240.07;1692061;84;21587;-62
2022/04/03 05:50:06;;;;;;;7.92;5.33;;;;;;;10.51;100.00;99238.05;1688553;85;21410;-61
2022/04/03 05:52:44;;;;;;;6.72;5.05;;;;;;;10.36;100.00;99242.43;1683688;85;21043;-62
2022/04/03 05:55:12;;;;;;;7.80;5.28;;;;;;;10.39;100.00;99241.41;1683452;85;21060;-62
2022/04/03 05:57:41;;;;;;;6.60;4.95;;;;;;;10.32;100.00;99240.98;1683794;85;21658;-62
2022/04/03 06:00:12;;;;;;;6.95;4.90;;;;;;;10.41;100.00;99249.84;1689224;84;20993;-61
2022/04/03 06:02:58;;;;;;;8.68;5.28;;;;;;;10.48;100.00;99260.09;1681147;85;21054;-61
2022/04/03 06:05:33;;;;;;;6.85;5.00;;;;;;;10.51;100.00;99250.91;1675808;85;20963;-62
2022/04/03 06:08:03;;;;;;;9.18;5.80;;;;;;;10.59;100.00;99253.00;1682191;85;21062;-63
2022/04/03 06:10:31;;;;;;;8.75;5.28;;;;;;;10.60;100.00;99255.48;1682689;85;21045;-61
2022/04/03 06:13:04;;;;;;;8.13;5.25;;;;;;;10.51;100.00;99261.67;1701137;84;21054;-62
2022/04/03 06:15:40;;;;;;;7.45;5.22;;;;;;;10.69;100.00;99262.24;1701386;84;21033;-62
2022/04/03 06:18:12;;;;;;;8.15;5.17;;;;;;;10.69;100.00;99263.53;1703447;84;21101;-62
2022/04/03 06:20:41;;;;;;;6.67;4.90;;;;;;;10.82;100.00;99257.46;1701343;83;21066;-62
2022/04/03 06:23:18;;;;;;;7.03;4.80;;;;;;;11.02;100.00;99261.31;1701083;84;21589;-61
2022/04/03 06:25:48;;;;;;;7.20;5.42;;;;;;;11.09;100.00;99257.89;1701442;84;21055;-61
2022/04/03 06:28:16;;;;;;;7.53;5.58;;;;;;;11.28;100.00;99265.68;1701482;84;21585;-62
2022/04/03 06:30:45;;;;;;;8.75;6.45;;;;;;;11.21;100.00;99271.68;1682875;85;21515;-61
2022/04/03 06:33:12;;;;;;;8.25;5.83;;;;;;;11.15;100.00;99272.09;1701402;83;21535;-62
2022/04/03 06:35:40;;;;;;;6.42;4.78;;;;;;;11.15;100.00;99267.78;1701310;84;21082;-61
2022/04/03 06:38:07;;;;;;;7.05;5.03;;;;;;;11.33;100.00;99269.57;1682809;85;21046;-62
2022/04/03 06:40:37;;;;;;;8.60;5.90;;;;;;;11.55;100.00;99270.23;1701169;83;21078;-61
2022/04/03 06:43:05;;;;;;;7.25;5.28;;;;;;;11.52;100.00;99277.37;1701434;84;21039;-61
2022/04/03 06:45:32;;;;;;;6.85;5.25;;;;;;;11.54;100.00;99267.79;1686535;84;21106;-61
2022/04/03 06:48:01;;;;;;;6.70;5.15;;;;;;;11.73;100.00;99272.50;1672919;86;21134;-62
2022/04/03 06:50:30;;;;;;;7.28;5.37;;;;;;;11.85;100.00;99266.50;1673018;86;21048;-62
2022/04/03 06:52:57;;;;;;;7.33;5.35;;;;;;;11.92;100.00;99266.92;1672832;86;21088;-62
2022/04/03 06:55:24;;;;;;;7.83;5.80;;;;;;;12.01;100.00;99270.16;1673003;86;21548;-62
2022/04/03 06:57:51;;;;;;;7.15;5.37;;;;;;;11.99;100.00;99259.95;1672900;86;21036;-61
2022/04/03 07:00:19;;;;;;;7.12;5.20;;;;;;;12.09;100.00;99259.31;1672798;86;21029;-62
2022/04/03 07:02:48;;;;;;;7.62;5.42;;;;;;;12.29;100.00;99254.85;1657302;86;21126;-61
2022/04/03 07:05:16;;;;;;;6.70;5.25;;;;;;;12.38;100.00;99260.63;1672819;86;21057;-62
2022/04/03 07:07:45;;;;;;;6.37;5.05;;;;;;;12.38;100.00;99255.95;1673213;86;21564;-61
2022/04/03 07:10:15;;;;;;;6.75;5.03;;;;;;;12.69;100.00;99252.44;1657152;86;21560;-62
2022/04/03 07:12:43;;;;;;;7.35;5.05;;;;;;;12.62;100.00;99246.91;1672860;86;21060;-62
2022/04/03 07:15:13;;;;;;;7.53;5.60;;;;;;;12.63;100.00;99240.78;1657437;86;21055;-62
2022/04/03 07:17:42;;;;;;;7.33;5.37;;;;;;;12.92;100.00;99242.54;1672955;86;21084;-61
2022/04/03 07:20:15;;;;;;;9.95;5.83;;;;;;;12.76;100.00;99242.84;1673271;86;21572;-62
2022/04/03 07:22:44;;;;;;;7.33;5.60;;;;;;;12.55;100.00;99238.79;1666871;86;21059;-62
2022/04/03 07:25:13;;;;;;;8.43;5.83;;;;;;;12.33;100.00;99234.34;1660049;86;21048;-62
2022/04/03 07:27:42;;;;;;;8.48;5.83;;;;;;;12.26;100.00;99238.76;1649514;86;20997;-61
2022/04/03 07:30:12;;;;;;;8.78;6.40;;;;;;;12.35;100.00;99241.52;1642808;87;21353;-62
2022/04/03 07:32:40;;;;;;;10.00;6.65;;;;;;;12.48;100.00;99236.75;1643631;86;21051;-62
2022/04/03 07:35:09;;;;;;;10.43;6.83;;;;;;;12.48;100.00;99238.86;1670199;85;21028;-62
2022/04/03 07:37:37;;;;;;;11.03;7.28;;;;;;;12.29;100.00;99250.17;1643944;87;20995;-61
2022/04/03 07:40:07;;;;;;;11.12;7.90;;;;;;;12.18;100.00;99247.86;1677358;85;21015;-62
2022/04/03 07:42:36;;;;;;;31.73;17.67;;;;;;;12.10;100.00;99243.70;1659003;86;21025;-62
2022/04/03 07:45:05;;;;;;;40.43;22.20;;;;;;;12.05;100.00;99234.67;1666090;85;21543;-61
2022/04/03 07:47:34;;;;;;;40.35;24.00;;;;;;;12.28;100.00;99234.31;1668853;86;21017;-61
2022/04/03 07:50:05;;;;;;;41.30;24.23;;;;;;;12.28;100.00;99231.26;1668916;85;21013;-62
2022/04/03 07:52:33;;;;;;;41.95;23.27;;;;;;;12.31;100.00;99228.95;1668601;85;21001;-61
2022/04/03 07:55:01;;;;;;;39.27;24.45;;;;;;;12.38;100.00;99214.18;1668413;86;21072;-62
2022/04/03 07:57:28;;;;;;;43.05;24.45;;;;;;;12.68;100.00;99213.36;1668570;85;21513;-62
2022/04/03 07:59:56;;;;;;;38.63;22.98;;;;;;;12.78;100.00;99211.27;1668866;85;21005;-62
2022/04/03 08:02:23;;;;;;;35.33;21.15;;;;;;;12.66;100.00;99217.82;1668889;86;21088;-63
2022/04/03 08:04:51;;;;;;;30.37;21.00;;;;;;;12.66;100.00;99216.53;1666842;85;21367;-64
2022/04/03 08:07:18;;;;;;;35.65;21.48;;;;;;;12.93;100.00;99218.34;1675654;85;21040;-64
2022/04/03 08:09:47;;;;;;;34.73;20.45;;;;;;;13.28;100.00;99221.80;1648768;87;21060;-63
2022/04/03 08:12:15;;;;;;;33.18;20.72;;;;;;;13.35;100.00;99228.19;1633244;87;21032;-63
2022/04/03 08:14:44;;;;;;;31.77;19.90;;;;;;;13.16;100.00;99228.74;1652803;85;21055;-63
2022/04/03 08:17:12;;;;;;;34.18;21.70;;;;;;;13.09;100.00;99238.69;1678734;85;21039;-63
2022/04/03 08:19:40;;;;;;;33.20;20.52;;;;;;;13.13;100.00;99241.88;1680852;85;21051;-63
2022/04/03 08:22:07;;;;;;;32.28;20.62;;;;;;;12.92;100.00;99243.02;1680944;85;21048;-63
2022/04/03 08:24:36;;;;;;;33.53;20.85;;;;;;;12.80;100.00;99239.09;1668433;85;21607;-63
2022/04/03 08:27:05;;;;;;;33.40;20.88;;;;;;;12.70;100.00;99235.55;1668850;86;21092;-62
2022/04/03 08:29:33;;;;;;;32.70;20.82;;;;;;;12.49;100.00;99233.22;1668743;86;21053;-63
2022/04/03 08:32:03;;;;;;;32.70;20.85;;;;;;;12.52;100.00;99229.96;1668627;85;21078;-62
2022/04/03 08:34:32;;;;;;;30.68;19.75;;;;;;;12.56;100.00;99230.09;1668825;85;21102;-62
2022/04/03 08:37:00;;;;;;;32.15;20.88;;;;;;;12.54;100.00;99224.69;1668809;86;21071;-62
2022/04/03 08:39:28;;;;;;;37.10;21.50;;;;;;;12.52;100.00;99234.31;1668723;84;21066;-62
2022/04/03 08:41:56;;;;;;;37.80;21.80;;;;;;;12.43;100.00;99224.19;1667458;85;21000;-63
2022/04/03 08:44:25;;;;;;;35.43;21.07;;;;;;;12.37;100.00;99221.58;1673196;84;21077;-63
2022/04/03 08:46:55;;;;;;;30.02;18.30;;;;;;;12.13;100.00;99211.26;1699324;84;22290;-62
2022/04/03 08:49:22;;;;;;;30.10;18.45;;;;;;;11.94;100.00;99214.77;1699571;84;20995;-63
2022/04/03 08:51:51;;;;;;;27.05;17.92;;;;;;;11.97;100.00;99226.99;1699272;84;21539;-63
2022/04/03 08:54:21;;;;;;;31.93;18.10;;;;;;;11.83;100.00;99227.92;1699105;84;21090;-63
2022/04/03 08:56:48;;;;;;;31.52;19.15;;;;;;;11.59;100.00;99231.73;1699244;84;21527;-62
2022/04/03 08:59:16;;;;;;;29.32;17.75;;;;;;;11.56;100.00;99235.00;1699613;84;21050;-62
2022/04/03 09:01:43;;;;;;;28.73;17.70;;;;;;;11.56;100.00;99231.95;1699237;84;21043;-63
2022/04/03 09:04:12;;;;;;;30.57;18.42;;;;;;;11.58;100.00;99229.28;1699519;84;21101;-62
2022/04/03 09:06:55;;;;;;;30.10;19.00;;;;;;;11.52;100.00;99229.23;1711838;83;21025;-62
2022/04/03 09:09:24;;;;;;;30.30;18.65;;;;;;;11.49;100.00;99231.19;1685776;84;21012;-63
2022/04/03 09:12:15;;;;;;;28.27;18.48;;;;;;;11.57;100.00;99224.56;1684372;85;21091;-62
2022/04/03 09:14:54;;;;;;;56.05;32.45;;;;;;;11.66;100.00;99225.70;1684338;85;21508;-63
2022/04/03 09:17:36;;;;;;;68.78;43.48;;;;;;;11.63;100.00;99222.04;1692311;83;21000;-63
2022/04/03 09:20:12;;;;;;;30.95;19.10;;;;;;;11.54;100.00;99218.83;1714296;84;21575;-62
2022/04/03 09:22:44;;;;;;;28.32;18.42;;;;;;;11.56;100.00;99217.78;1709233;84;20972;-62
2022/04/03 09:25:15;;;;;;;29.07;18.25;;;;;;;11.53;100.00;99214.58;1699461;84;21576;-62
2022/04/03 09:27:57;;;;;;;29.63;18.25;;;;;;;11.40;100.00;99214.14;1699488;84;21040;-62
2022/04/03 09:30:42;;;;;;;27.13;17.15;;;;;;;11.36;100.00;99211.41;1699355;84;21083;-62
2022/04/03 09:33:15;;;;;;;26.97;17.15;;;;;;;11.24;100.00;99205.80;1694040;84;21312;-62
2022/04/03 09:36:01;;;;;;;;;;;;;;;10.97;100.00;99196.91;1696449;83;21089;-62
2022/04/03 09:38:32;;;;;;;25.37;15.68;;;;;;;10.68;100.00;99189.80;1717280;83;20484;-62
2022/04/03 09:41:01;;;;;;;26.50;15.65;;;;;;;10.50;100.00;99178.95;1717011;83;21127;-62
2022/04/03 09:43:35;;;;;;;26.23;15.80;;;;;;;10.36;100.00;99178.56;1717283;83;21038;-62
2022/04/03 09:46:06;;;;;;;25.15;16.00;;;;;;;10.32;100.00;99178.39;1723182;83;21070;-62
2022/04/03 09:48:41;;;;;;;30.00;16.87;;;;;;;10.23;100.00;99175.46;1725103;83;21089;-62
2022/04/03 09:51:13;;;;;;;30.68;17.67;;;;;;;10.34;100.00;99173.53;1728467;83;21613;-62
2022/04/03 09:53:58;;;;;;;28.83;16.48;;;;;;;10.27;100.00;99168.38;1724938;83;22239;-62
2022/04/03 09:56:31;;;;;;;29.67;16.73;;;;;;;10.31;100.00;99172.44;1725328;83;21129;-62
2022/04/03 09:59:07;;;;;;;28.07;17.35;;;;;;;10.46;100.00;99175.75;1725409;83;21046;-61
2022/04/03 10:01:42;;;;;;;26.73;16.67;;;;;;;10.45;100.00;99190.84;1725130;83;21078;-62
2022/04/03 10:04:14;;;;;;;25.68;15.38;;;;;;;10.38;100.00;99187.84;1725302;83;21034;-61
2022/04/03 10:06:44;;;;;;;24.30;14.85;;;;;;;10.33;100.00;99200.64;1706431;83;21083;-62
2022/04/03 10:09:12;;;;;;;22.35;14.13;;;;;;;10.21;100.00;99197.88;1696895;84;21043;-62
2022/04/03 10:11:40;;;;;;;25.05;15.15;;;;;;;10.16;100.00;99199.12;1696621;84;21034;-62
2022/04/03 10:14:09;;;;;;;22.80;13.53;;;;;;;10.06;100.00;99204.45;1696843;84;21071;-62
2022/04/03 10:16:39;;;;;;;26.30;14.18;;;;;;;10.04;100.00;99202.00;1699501;84;21609;-62
2022/04/03 10:19:06;;;;;;;29.12;14.98;;;;;;;9.91;100.00;99215.23;1676225;84;21539;-62
2022/04/03 10:21:42;;;;;;;23.27;14.93;;;;;;;9.93;100.00;99216.78;1700674;84;21039;-62
2022/04/03 10:24:19;;;;;;;22.73;14.50;;;;;;;9.94;100.00;99226.63;1701683;84;20996;-62
2022/04/03 10:26:58;;;;;;;23.55;14.73;;;;;;;9.95;100.00;99225.69;1698700;84;20991;-61
2022/04/03 10:29:31;;;;;;;24.72;15.43;;;;;;;9.96;100.00;99235.07;1702823;84;21010;-62
2022/04/03 10:32:04;;;;;;;26.47;16.03;;;;;;;9.87;100.00;99235.62;1701325;84;20972;-62
2022/04/03 10:34:46;;;;;;;25.77;15.35;;;;;;;9.81;100.00;99241.52;1703983;84;21238;-61
2022/04/03 10:37:32;;;;;;;31.73;16.05;;;;;;;9.82;100.00;99241.88;1700924;84;21007;-61
2022/04/03 10:40:16;;;;;;;26.10;16.50;;;;;;;9.77;100.00;99237.48;1712823;84;21039;-61
2022/04/03 10:42:58;;;;;;;26.48;17.10;;;;;;;9.75;100.00;99232.05;1711993;84;21022;-62
2022/04/03 10:45:30;;;;;;;26.02;16.27;;;;;;;9.80;100.00;99224.44;1700696;84;21527;-62
2022/04/03 10:48:26;;;;;;;25.55;15.35;;;;;;;9.70;100.00;99222.53;1695565;84;21543;-62
2022/04/03 10:51:11;;;;;;;23.90;14.35;;;;;;;9.57;100.00;99220.71;1689825;84;21091;-62
2022/04/03 10:53:42;;;;;;;22.93;13.93;;;;;;;9.48;100.00;99230.24;1688305;85;21551;-63
2022/04/03 10:56:24;;;;;;;25.70;15.32;;;;;;;9.30;100.00;99218.03;1690122;84;21098;-62
2022/04/03 10:58:54;;;;;;;34.60;18.98;;;;;;;9.39;100.00;99205.95;1691767;84;21055;-62
2022/04/03 11:01:33;;;;;;;39.48;21.45;;;;;;;9.33;100.00;99208.88;1689681;84;20984;-62
2022/04/03 11:04:14;;;;;;;51.45;24.87;;;;;;;9.42;100.00;99202.36;1690149;84;21065;-62
2022/04/03 11:06:45;;;;;;;57.05;27.42;;;;;;;9.26;100.00;99194.74;1692162;84;21039;-62
2022/04/03 11:09:17;;;;;;;67.42;29.35;;;;;;;9.40;100.00;99187.03;1700181;84;20955;-63
2022/04/03 11:11:53;;;;;;;64.60;32.05;;;;;;;9.51;100.00;99193.27;1666655;85;21573;-63
2022/04/03 11:14:55;;;;;;;69.37;34.18;;;;;;;9.70;100.00;99187.84;1698274;83;21046;-65
2022/04/03 11:17:47;;;;;;;68.62;34.63;;;;;;;9.85;100.00;99183.48;1671880;86;20983;-63
2022/04/03 11:20:33;;;;;;;77.78;37.10;;;;;;;9.99;100.00;99171.88;1693946;84;21059;-64
2022/04/03 11:23:02;;;;;;;81.65;39.45;;;;;;;10.16;100.00;99175.50;1690341;84;20996;-63
2022/04/03 11:25:30;;;;;;;57.60;30.75;;;;;;;10.39;100.00;99182.23;1694981;84;21043;-63
2022/04/03 11:27:57;;;;;;;49.27;26.20;;;;;;;10.23;100.00;99190.89;1688396;84;20996;-63
2022/04/03 11:30:25;;;;;;;55.88;27.25;;;;;;;10.10;100.00;99200.79;1675370;84;20976;-63
2022/04/03 11:32:55;;;;;;;50.33;26.05;;;;;;;10.01;100.00;99205.56;1689102;84;21016;-64
2022/04/03 11:35:38;;;;;;;57.38;26.80;;;;;;;10.02;100.00;99198.70;1691705;84;21083;-63